createdAt,value
2022-11-29T00:01:08.389Z,14.20
2022-11-29T00:03:37.593Z,21.97
2022-11-29T00:06:06.652Z,17.07
2022-11-29T00:08:34.708Z,16.40
2022-11-29T00:11:08.246Z,16.20
2022-11-29T00:13:36.274Z,13.97
2022-11-29T00:16:05.156Z,14.87
2022-11-29T00:18:32.961Z,15.60
2022-11-29T00:21:00.853Z,15.20
2022-11-29T00:23:28.627Z,14.77
2022-11-29T00:25:56.361Z,17.67
2022-11-29T00:28:25.528Z,18.67
2022-11-29T00:30:53.323Z,17.80
2022-11-29T00:33:20.975Z,17.43
2022-11-29T00:35:48.676Z,18.30
2022-11-29T00:38:16.343Z,15.97
2022-11-29T00:40:44.023Z,17.47
2022-11-29T00:43:11.664Z,14.57
2022-11-29T00:45:40.821Z,14.73
2022-11-29T00:48:08.564Z,14.30
2022-11-29T00:50:36.282Z,14.37
2022-11-29T00:53:04.040Z,14.77
2022-11-29T00:55:31.735Z,13.83
2022-11-29T00:57:59.468Z,15.27
2022-11-29T01:00:27.093Z,13.53
2022-11-29T01:02:56.327Z,14.37
2022-11-29T01:05:24.019Z,14.33
2022-11-29T01:07:51.727Z,13.70
2022-11-29T01:10:19.742Z,14.40
2022-11-29T01:12:47.450Z,14.07
2022-11-29T01:15:15.409Z,13.73
2022-11-29T01:17:43.159Z,13.97
2022-11-29T01:20:13.940Z,14.70
2022-11-29T01:22:42.078Z,13.60
2022-11-29T01:25:11.956Z,13.87
2022-11-29T01:27:39.871Z,14.40
2022-11-29T01:30:09.744Z,14.67
2022-11-29T01:32:37.789Z,14.63
2022-11-29T01:35:06.739Z,13.17
2022-11-29T01:37:35.920Z,13.23
2022-11-29T01:40:04.092Z,14.60
2022-11-29T01:42:31.806Z,15.30
2022-11-29T01:45:07.789Z,14.47
2022-11-29T01:47:39.235Z,13.83
2022-11-29T01:50:09.229Z,13.70
2022-11-29T01:52:39.146Z,14.40
2022-11-29T01:55:09.761Z,13.77
2022-11-29T01:57:40.394Z,14.23
2022-11-29T02:00:11.724Z,16.30
2022-11-29T02:02:43.045Z,13.83
2022-11-29T02:05:11.381Z,15.83
2022-11-29T02:07:40.717Z,14.53
2022-11-29T02:10:09.430Z,14.33
2022-11-29T02:12:45.277Z,14.50
2022-11-29T02:15:34.412Z,14.80
2022-11-29T02:18:06.724Z,14.43
2022-11-29T02:20:49.660Z,14.33
2022-11-29T02:23:36.027Z,14.77
2022-11-29T02:26:15.337Z,15.37
2022-11-29T02:28:50.893Z,14.57
2022-11-29T02:31:51.973Z,15.40
2022-11-29T02:34:59.916Z,14.90
2022-11-29T02:37:49.132Z,14.13
2022-11-29T02:40:38.625Z,14.37
2022-11-29T02:43:26.551Z,15.50
2022-11-29T02:46:03.428Z,16.33
2022-11-29T02:48:45.740Z,15.97
2022-11-29T02:51:19.303Z,14.80
2022-11-29T02:53:52.568Z,16.03
2022-11-29T02:56:25.280Z,16.07
2022-11-29T02:58:57.052Z,18.77
2022-11-29T03:01:29.626Z,15.97
2022-11-29T03:04:03.956Z,16.50
2022-11-29T03:06:39.771Z,15.83
2022-11-29T03:09:10.627Z,15.83
2022-11-29T03:11:42.683Z,16.57
2022-11-29T03:14:17.294Z,16.10
2022-11-29T03:16:49.218Z,15.77
2022-11-29T03:19:30.375Z,16.83
2022-11-29T03:22:08.342Z,14.90
2022-11-29T03:24:40.962Z,16.17
2022-11-29T03:27:13.397Z,15.10
2022-11-29T03:29:45.368Z,15.53
2022-11-29T03:32:17.372Z,16.20
2022-11-29T03:34:57.642Z,14.53
2022-11-29T03:37:30.160Z,15.67
2022-11-29T03:40:03.292Z,15.43
2022-11-29T03:42:33.255Z,16.00
2022-11-29T03:45:05.562Z,15.13
2022-11-29T03:47:37.247Z,15.63
2022-11-29T03:50:08.184Z,14.97
2022-11-29T03:52:44.038Z,14.97
2022-11-29T03:55:20.556Z,15.10
2022-11-29T03:57:55.852Z,15.60
2022-11-29T04:00:24.039Z,14.90
2022-11-29T04:03:30.769Z,15.70
2022-11-29T04:06:21.587Z,14.23
2022-11-29T04:09:29.313Z,14.37
2022-11-29T04:12:31.932Z,13.90
2022-11-29T04:15:25.854Z,13.83
2022-11-29T04:18:27.253Z,14.80
2022-11-29T04:21:07.648Z,15.23
2022-11-29T04:24:00.661Z,14.37
2022-11-29T04:26:47.845Z,15.73
2022-11-29T04:29:30.939Z,16.40
2022-11-29T04:32:11.388Z,14.20
2022-11-29T04:34:53.824Z,16.53
2022-11-29T04:37:44.426Z,14.57
2022-11-29T04:40:26.409Z,14.80
2022-11-29T04:43:10.541Z,14.50
2022-11-29T04:45:56.126Z,13.17
2022-11-29T04:48:39.590Z,14.07
2022-11-29T04:51:16.471Z,14.43
2022-11-29T04:53:52.548Z,14.63
2022-11-29T04:56:27.118Z,15.80
2022-11-29T04:59:00.007Z,15.67
2022-11-29T05:01:33.391Z,15.13
2022-11-29T05:04:06.132Z,15.33
2022-11-29T05:06:39.272Z,15.23
2022-11-29T05:09:13.469Z,15.93
2022-11-29T05:11:49.420Z,15.13
2022-11-29T05:14:28.340Z,15.53
2022-11-29T05:17:03.874Z,15.47
2022-11-29T05:19:44.636Z,14.47
2022-11-29T05:22:23.385Z,16.13
2022-11-29T05:24:57.370Z,14.30
2022-11-29T05:27:33.543Z,16.20
2022-11-29T05:30:06.511Z,15.13
2022-11-29T05:32:36.674Z,15.90
2022-11-29T05:35:30.527Z,16.60
2022-11-29T05:38:03.506Z,16.03
2022-11-29T05:40:42.130Z,16.23
2022-11-29T05:43:19.573Z,16.20
2022-11-29T05:45:53.612Z,16.43
2022-11-29T05:48:26.131Z,17.93
2022-11-29T05:51:03.917Z,17.90
2022-11-29T05:53:36.506Z,16.97
2022-11-29T05:56:08.045Z,21.90
2022-11-29T05:58:44.230Z,29.80
2022-11-29T06:01:21.816Z,30.57
2022-11-29T06:03:57.572Z,41.37
2022-11-29T06:06:32.362Z,34.73
2022-11-29T06:09:05.899Z,31.87
2022-11-29T06:11:36.288Z,29.27
2022-11-29T06:14:09.262Z,26.50
2022-11-29T06:16:47.659Z,28.13
2022-11-29T06:19:41.460Z,33.73
2022-11-29T06:22:21.544Z,23.77
2022-11-29T06:24:58.304Z,23.53
2022-11-29T06:27:40.694Z,23.80
2022-11-29T06:30:10.253Z,23.97
2022-11-29T06:32:46.136Z,23.57
2022-11-29T06:35:25.642Z,23.77
2022-11-29T06:37:56.319Z,24.07
2022-11-29T06:40:24.478Z,24.37
2022-11-29T06:42:52.060Z,21.93
2022-11-29T06:45:21.775Z,21.27
2022-11-29T06:47:54.283Z,20.33
2022-11-29T06:50:32.794Z,20.43
2022-11-29T06:53:05.431Z,21.13
2022-11-29T06:55:39.559Z,20.53
2022-11-29T06:58:14.536Z,19.73
2022-11-29T07:00:47.017Z,19.77
2022-11-29T07:03:32.330Z,20.53
2022-11-29T07:06:00.217Z,21.50
2022-11-29T07:08:28.308Z,20.67
2022-11-29T07:10:56.635Z,27.17
2022-11-29T07:13:24.797Z,21.97
2022-11-29T07:16:01.774Z,23.27
2022-11-29T07:18:35.349Z,22.93
2022-11-29T07:21:11.858Z,19.70
2022-11-29T07:23:44.263Z,21.57
2022-11-29T07:26:21.618Z,22.47
2022-11-29T07:29:08.565Z,22.53
2022-11-29T07:31:45.173Z,22.43
2022-11-29T07:34:22.283Z,23.90
2022-11-29T07:36:54.999Z,22.00
2022-11-29T07:39:30.613Z,23.00
2022-11-29T07:42:04.057Z,21.97
2022-11-29T07:44:37.173Z,21.43
2022-11-29T07:47:04.827Z,25.33
2022-11-29T07:49:33.801Z,30.47
2022-11-29T07:52:01.451Z,21.37
2022-11-29T07:54:29.118Z,24.23
2022-11-29T07:56:56.754Z,23.80
2022-11-29T07:59:24.311Z,22.47
2022-11-29T08:01:51.973Z,23.60
2022-11-29T08:04:19.576Z,25.97
2022-11-29T08:06:48.498Z,25.97
2022-11-29T08:09:16.163Z,25.40
2022-11-29T08:11:44.682Z,30.73
2022-11-29T08:14:19.272Z,25.43
2022-11-29T08:16:46.895Z,22.63
2022-11-29T08:19:14.488Z,21.67
2022-11-29T08:21:44.437Z,21.57
2022-11-29T08:24:13.501Z,23.63
2022-11-29T08:26:41.264Z,23.83
2022-11-29T08:29:09.207Z,24.10
2022-11-29T08:31:36.981Z,25.10
2022-11-29T08:34:06.776Z,21.97
2022-11-29T08:36:34.454Z,23.87
2022-11-29T08:39:08.879Z,20.90
2022-11-29T08:41:38.640Z,25.03
2022-11-29T08:44:06.655Z,22.80
2022-11-29T08:46:51.837Z,23.77
2022-11-29T08:49:19.638Z,24.57
2022-11-29T08:51:47.225Z,22.70
2022-11-29T08:54:13.863Z,22.03
2022-11-29T08:57:37.547Z,23.03
2022-11-29T08:59:30.338Z,23.73
2022-11-29T09:01:58.316Z,21.47
2022-11-29T09:04:25.916Z,21.67
2022-11-29T09:06:53.564Z,20.53
2022-11-29T09:09:21.134Z,18.97
2022-11-29T09:11:50.061Z,20.60
2022-11-29T09:14:18.506Z,21.87
2022-11-29T09:16:46.199Z,22.73
2022-11-29T09:19:14.937Z,21.00
2022-11-29T09:21:42.635Z,22.73
2022-11-29T09:24:10.678Z,17.80
2022-11-29T09:26:40.633Z,21.07
2022-11-29T09:29:09.840Z,21.43
2022-11-29T09:31:37.442Z,18.73
2022-11-29T09:34:05.199Z,19.17
2022-11-29T09:36:32.757Z,20.00
2022-11-29T09:39:03.185Z,18.53
2022-11-29T09:41:47.067Z,18.73
2022-11-29T09:44:22.154Z,21.30
2022-11-29T09:46:58.768Z,18.40
2022-11-29T09:49:49.516Z,15.87
2022-11-29T09:52:24.026Z,17.70
2022-11-29T09:54:56.635Z,18.13
2022-11-29T09:57:26.946Z,15.07
2022-11-29T09:59:58.103Z,15.13
2022-11-29T10:02:31.537Z,16.00
2022-11-29T10:05:03.704Z,15.43
2022-11-29T10:07:34.539Z,15.47
2022-11-29T10:10:05.628Z,15.37
2022-11-29T10:12:37.179Z,14.03
2022-11-29T10:15:13.871Z,15.07
2022-11-29T10:17:44.335Z,14.47
2022-11-29T10:20:15.402Z,16.03
2022-11-29T10:22:49.645Z,15.43
2022-11-29T10:25:24.736Z,17.80
2022-11-29T10:27:52.621Z,15.57
2022-11-29T10:30:21.954Z,18.90
2022-11-29T10:32:53.339Z,15.20
2022-11-29T10:35:21.383Z,15.27
2022-11-29T10:38:29.186Z,17.93
2022-11-29T10:40:48.605Z,17.50
2022-11-29T10:43:16.262Z,16.23
2022-11-29T10:45:50.540Z,15.70
2022-11-29T10:48:20.306Z,24.83
2022-11-29T10:50:50.363Z,16.30
2022-11-29T10:53:19.867Z,16.10
2022-11-29T10:55:51.669Z,15.77
2022-11-29T10:58:24.825Z,14.67
2022-11-29T11:00:58.293Z,15.70
2022-11-29T11:03:34.009Z,15.03
2022-11-29T11:06:05.519Z,16.30
2022-11-29T11:08:34.405Z,14.97
2022-11-29T11:11:03.302Z,15.53
2022-11-29T11:13:32.328Z,15.13
2022-11-29T11:16:10.186Z,14.17
2022-11-29T11:18:38.423Z,15.20
2022-11-29T11:21:09.523Z,15.43
2022-11-29T11:23:42.631Z,14.60
2022-11-29T11:26:12.667Z,14.20
2022-11-29T11:28:43.565Z,15.27
2022-11-29T11:31:13.833Z,14.23
2022-11-29T11:33:42.776Z,14.17
2022-11-29T11:36:13.430Z,15.87
2022-11-29T11:38:42.330Z,21.80
2022-11-29T11:41:19.643Z,15.00
2022-11-29T11:43:56.129Z,15.30
2022-11-29T11:46:25.314Z,14.40
2022-11-29T11:48:54.007Z,13.97
2022-11-29T11:51:24.502Z,12.97
2022-11-29T11:53:54.227Z,14.67
2022-11-29T11:56:22.626Z,13.37
2022-11-29T11:58:53.576Z,12.10
2022-11-29T12:01:30.198Z,14.03
2022-11-29T12:04:02.792Z,13.23
2022-11-29T12:06:39.472Z,14.33
2022-11-29T12:09:19.349Z,14.13
2022-11-29T12:11:52.484Z,14.20
2022-11-29T12:14:26.871Z,14.80
2022-11-29T12:17:08.118Z,15.13
2022-11-29T12:19:40.544Z,14.67
2022-11-29T12:22:09.812Z,15.40
2022-11-29T12:24:40.257Z,13.27
2022-11-29T12:27:14.859Z,13.30
2022-11-29T12:29:42.460Z,14.47
2022-11-29T12:32:22.455Z,13.67
2022-11-29T12:35:08.116Z,13.90
2022-11-29T12:37:41.195Z,13.40
2022-11-29T12:40:15.175Z,14.10
2022-11-29T12:42:49.484Z,15.13
2022-11-29T12:45:35.776Z,14.20
2022-11-29T12:48:11.974Z,15.60
2022-11-29T12:50:49.026Z,14.77
2022-11-29T12:53:27.506Z,14.80
2022-11-29T12:56:05.303Z,16.00
2022-11-29T12:58:42.743Z,14.37
2022-11-29T13:01:20.538Z,14.97
2022-11-29T13:04:05.743Z,13.70
2022-11-29T13:06:40.764Z,14.13
2022-11-29T13:09:21.472Z,13.97
2022-11-29T13:11:55.179Z,14.27
2022-11-29T13:14:42.824Z,14.20
2022-11-29T13:17:21.981Z,14.77
2022-11-29T13:20:00.201Z,13.17
2022-11-29T13:22:33.666Z,14.17
2022-11-29T13:25:04.714Z,14.23
2022-11-29T13:27:35.967Z,13.87
2022-11-29T13:30:04.513Z,12.43
2022-11-29T13:32:35.801Z,13.60
2022-11-29T13:35:09.732Z,13.50
2022-11-29T13:37:40.071Z,12.97
2022-11-29T13:40:20.637Z,13.20
2022-11-29T13:42:59.485Z,12.50
2022-11-29T13:45:31.309Z,12.30
2022-11-29T13:48:00.490Z,13.13
2022-11-29T13:50:40.577Z,11.03
2022-11-29T13:53:15.664Z,11.30
2022-11-29T13:56:00.087Z,12.37
2022-11-29T13:58:37.553Z,11.90
2022-11-29T14:01:08.242Z,12.07
2022-11-29T14:03:38.902Z,11.57
2022-11-29T14:06:13.534Z,13.50
2022-11-29T14:09:17.399Z,12.87
2022-11-29T14:11:34.595Z,12.47
2022-11-29T14:14:04.588Z,11.67
2022-11-29T14:16:35.189Z,11.97
2022-11-29T14:19:22.923Z,12.33
2022-11-29T14:22:20.625Z,14.13
2022-11-29T14:25:01.343Z,13.87
2022-11-29T14:27:56.208Z,14.40
2022-11-29T14:30:48.739Z,12.17
2022-11-29T14:33:23.584Z,12.90
2022-11-29T14:36:14.304Z,13.33
2022-11-29T14:38:47.222Z,14.77
2022-11-29T14:41:22.156Z,16.23
2022-11-29T14:43:49.826Z,14.50
2022-11-29T14:46:29.202Z,15.47
2022-11-29T14:49:02.511Z,14.43
2022-11-29T14:51:31.594Z,13.17
2022-11-29T14:54:08.983Z,13.70
2022-11-29T14:56:43.333Z,13.00
2022-11-29T14:59:39.256Z,14.20
2022-11-29T15:02:08.760Z,13.30
2022-11-29T15:04:37.699Z,14.33
2022-11-29T15:07:05.782Z,14.27
2022-11-29T15:09:35.935Z,13.80
2022-11-29T15:12:08.623Z,15.17
2022-11-29T15:14:42.800Z,16.03
2022-11-29T15:17:22.645Z,13.83
2022-11-29T15:20:08.390Z,14.23
2022-11-29T15:22:44.299Z,14.60
2022-11-29T15:25:15.083Z,23.87
2022-11-29T15:27:52.574Z,15.53
2022-11-29T15:30:22.589Z,13.50
2022-11-29T15:32:50.545Z,15.73
2022-11-29T15:35:19.211Z,12.73
2022-11-29T15:37:48.741Z,12.03
2022-11-29T15:40:20.088Z,13.23
2022-11-29T15:42:50.387Z,14.23
2022-11-29T15:45:25.889Z,13.87
2022-11-29T15:47:53.687Z,16.67
2022-11-29T15:50:25.802Z,17.60
2022-11-29T15:52:54.737Z,20.00
2022-11-29T15:55:23.944Z,21.70
2022-11-29T15:57:53.531Z,20.07
2022-11-29T16:00:23.883Z,16.67
2022-11-29T16:02:53.008Z,16.13
2022-11-29T16:05:22.743Z,13.33
2022-11-29T16:07:53.645Z,14.70
2022-11-29T16:10:29.228Z,14.57
2022-11-29T16:13:06.885Z,15.50
2022-11-29T16:15:36.593Z,16.17
2022-11-29T16:18:05.607Z,20.20
2022-11-29T16:20:33.247Z,19.27
2022-11-29T16:23:12.393Z,16.00
2022-11-29T16:25:57.403Z,14.13
2022-11-29T16:28:26.834Z,14.53
2022-11-29T16:30:58.768Z,15.33
2022-11-29T16:33:26.425Z,21.80
2022-11-29T16:36:05.047Z,17.97
2022-11-29T16:38:32.903Z,16.63
2022-11-29T16:41:09.687Z,18.17
2022-11-29T16:43:53.207Z,17.30
2022-11-29T16:46:30.279Z,18.47
2022-11-29T16:49:00.689Z,19.60
2022-11-29T16:51:37.360Z,23.93
2022-11-29T16:54:24.975Z,22.67
2022-11-29T16:56:54.787Z,22.57
2022-11-29T16:59:27.354Z,19.20
2022-11-29T17:01:57.294Z,16.57
2022-11-29T17:04:25.527Z,17.47
2022-11-29T17:06:54.403Z,16.03
2022-11-29T17:09:25.002Z,15.60
2022-11-29T17:11:54.507Z,16.20
2022-11-29T17:14:22.119Z,16.33
2022-11-29T17:16:50.392Z,19.07
2022-11-29T17:19:19.684Z,16.93
2022-11-29T17:21:47.518Z,20.07
2022-11-29T17:24:16.602Z,20.83
2022-11-29T17:26:44.884Z,19.00
2022-11-29T17:29:15.154Z,21.00
2022-11-29T17:31:43.923Z,28.00
2022-11-29T17:34:11.924Z,24.30
2022-11-29T17:36:40.331Z,20.43
2022-11-29T17:39:08.195Z,22.33
2022-11-29T17:41:35.796Z,20.03
2022-11-29T17:44:03.714Z,21.07
2022-11-29T17:46:34.183Z,19.13
2022-11-29T17:49:03.374Z,17.33
2022-11-29T17:54:18.934Z,17.33
2022-11-29T17:56:46.499Z,16.63
2022-11-29T17:59:14.031Z,16.43
2022-11-29T18:01:43.104Z,19.27
2022-11-29T18:04:10.794Z,17.87
2022-11-29T18:06:40.888Z,19.33
2022-11-29T18:09:10.625Z,18.43
2022-11-29T18:11:46.952Z,20.20
2022-11-29T18:14:17.278Z,17.17
2022-11-29T18:16:46.534Z,17.10
2022-11-29T18:19:15.449Z,15.43
2022-11-29T18:21:44.188Z,20.53
2022-11-29T18:24:12.007Z,18.87
2022-11-29T18:26:40.504Z,18.17
2022-11-29T18:29:08.925Z,18.27
2022-11-29T18:31:37.875Z,18.73
2022-11-29T18:34:09.578Z,20.43
2022-11-29T18:36:39.291Z,23.07
2022-11-29T18:39:08.545Z,32.27
2022-11-29T18:41:36.517Z,18.07
2022-11-29T18:44:07.027Z,20.47
2022-11-29T18:46:36.807Z,20.50
2022-11-29T18:49:07.271Z,22.77
2022-11-29T18:51:35.851Z,17.13
2022-11-29T18:54:03.838Z,13.47
2022-11-29T18:56:32.942Z,12.83
2022-11-29T18:59:01.535Z,11.70
2022-11-29T19:01:30.723Z,13.40
2022-11-29T19:04:00.331Z,11.90
2022-11-29T19:06:38.584Z,13.27
2022-11-29T19:09:07.170Z,13.67
2022-11-29T19:11:35.259Z,13.40
2022-11-29T19:14:05.155Z,13.40
2022-11-29T19:16:34.400Z,14.83
2022-11-29T19:19:02.765Z,15.27
2022-11-29T19:21:34.370Z,15.30
2022-11-29T19:24:03.845Z,15.57
2022-11-29T19:26:32.887Z,15.53
2022-11-29T19:29:01.206Z,13.67
2022-11-29T19:31:29.966Z,14.10
2022-11-29T19:33:58.415Z,14.37
2022-11-29T19:36:27.672Z,15.40
2022-11-29T19:38:57.080Z,12.33
2022-11-29T19:41:26.512Z,11.03
2022-11-29T19:43:54.497Z,12.70
2022-11-29T19:46:23.945Z,14.37
2022-11-29T19:48:53.364Z,12.47
2022-11-29T19:51:21.269Z,12.60
2022-11-29T19:53:49.077Z,11.20
2022-11-29T19:56:20.296Z,11.63
2022-11-29T19:58:47.990Z,12.77
2022-11-29T20:01:17.993Z,14.50
2022-11-29T20:03:45.909Z,14.27
2022-11-29T20:06:14.424Z,15.83
2022-11-29T20:08:42.326Z,17.60
2022-11-29T20:11:11.888Z,16.17
2022-11-29T20:13:41.971Z,15.87
2022-11-29T20:16:11.097Z,15.67
2022-11-29T20:18:40.324Z,16.87
2022-11-29T20:21:10.941Z,15.30
2022-11-29T20:23:39.961Z,15.70
2022-11-29T20:26:08.690Z,13.30
2022-11-29T20:28:36.679Z,12.93
2022-11-29T20:31:07.814Z,12.60
2022-11-29T20:33:35.932Z,12.40
2022-11-29T20:36:09.038Z,12.33
2022-11-29T20:38:40.471Z,12.77
2022-11-29T20:41:13.676Z,11.93
2022-11-29T20:43:45.618Z,11.93
2022-11-29T20:46:15.208Z,13.60
2022-11-29T20:48:43.297Z,13.30
2022-11-29T20:51:11.854Z,13.10
2022-11-29T20:53:41.378Z,12.60
2022-11-29T20:56:09.908Z,14.17
2022-11-29T20:58:37.712Z,13.30
2022-11-29T21:01:06.536Z,14.03
2022-11-29T21:03:35.614Z,14.60
2022-11-29T21:06:05.533Z,13.00
2022-11-29T21:08:33.234Z,13.97
2022-11-29T21:11:05.602Z,13.77
2022-11-29T21:13:34.132Z,13.10
2022-11-29T21:16:02.335Z,12.13
2022-11-29T21:18:31.401Z,13.10
2022-11-29T21:21:15.117Z,13.03
2022-11-29T21:23:48.266Z,14.07
2022-11-29T21:26:18.406Z,14.10
2022-11-29T21:28:52.130Z,13.47
2022-11-29T21:31:20.230Z,15.87
2022-11-29T21:33:48.415Z,17.60
2022-11-29T21:36:18.984Z,16.80
2022-11-29T21:38:50.991Z,19.13
2022-11-29T21:41:22.588Z,18.47
2022-11-29T21:44:06.161Z,16.10
2022-11-29T21:46:34.661Z,17.37
2022-11-29T21:49:02.307Z,17.77
2022-11-29T21:51:31.229Z,15.70
2022-11-29T21:53:58.810Z,16.67
2022-11-29T21:56:26.390Z,15.97
2022-11-29T21:58:54.196Z,16.00
2022-11-29T22:01:21.876Z,15.63
2022-11-29T22:03:49.495Z,13.13
2022-11-29T22:06:20.264Z,13.07
2022-11-29T22:08:49.578Z,21.10
2022-11-29T22:11:30.559Z,20.50
2022-11-29T22:14:18.149Z,15.03
2022-11-29T22:16:47.847Z,17.53
2022-11-29T22:19:17.014Z,14.87
2022-11-29T22:21:46.430Z,13.97
2022-11-29T22:24:16.570Z,15.00
2022-11-29T22:26:44.874Z,14.97
2022-11-29T22:29:14.030Z,13.93
2022-11-29T22:31:42.193Z,15.37
2022-11-29T22:34:10.076Z,14.50
2022-11-29T22:36:38.266Z,14.70
2022-11-29T22:39:06.799Z,13.80
2022-11-29T22:41:36.741Z,14.87
2022-11-29T22:44:04.674Z,14.00
2022-11-29T22:46:32.312Z,16.40
2022-11-29T22:49:00.560Z,15.47
2022-11-29T22:51:30.381Z,16.90
2022-11-29T22:53:59.185Z,17.10
2022-11-29T22:56:28.759Z,16.90
2022-11-29T22:58:57.821Z,18.20
2022-11-29T23:01:26.794Z,19.17
2022-11-29T23:03:55.580Z,20.67
2022-11-29T23:06:25.015Z,19.00
2022-11-29T23:08:55.152Z,18.53
2022-11-29T23:11:24.267Z,21.20
2022-11-29T23:13:52.308Z,19.43
2022-11-29T23:16:22.602Z,17.83
2022-11-29T23:18:51.113Z,20.43
2022-11-29T23:21:20.632Z,18.40
2022-11-29T23:23:55.828Z,18.30
2022-11-29T23:26:26.329Z,19.73
2022-11-29T23:28:54.778Z,18.23
2022-11-29T23:31:24.985Z,17.47
2022-11-29T23:33:52.918Z,17.83
2022-11-29T23:36:20.527Z,17.90
2022-11-29T23:38:48.370Z,16.80
2022-11-29T23:41:16.228Z,20.57
2022-11-29T23:43:44.034Z,16.93
2022-11-29T23:46:14.803Z,17.80
2022-11-29T23:48:44.069Z,18.07
2022-11-29T23:51:12.508Z,18.27
2022-11-29T23:53:40.260Z,16.23
2022-11-29T23:56:10.667Z,15.53
2022-11-29T23:58:38.320Z,16.13
